createdAt,value
2023-01-08T00:01:15.306Z,85.78
2023-01-08T00:03:49.016Z,85.56
2023-01-08T00:06:19.546Z,85.77
2023-01-08T00:08:55.036Z,85.71
2023-01-08T00:11:25.244Z,85.74
2023-01-08T00:13:53.034Z,85.57
2023-01-08T00:19:02.070Z,85.61
2023-01-08T00:21:29.970Z,85.78
2023-01-08T00:23:57.075Z,85.89
2023-01-08T00:26:25.318Z,85.83
2023-01-08T00:28:52.627Z,85.91
2023-01-08T00:31:21.777Z,86.28
2023-01-08T00:33:48.878Z,86.36
2023-01-08T00:36:18.501Z,86.76
2023-01-08T00:38:47.022Z,86.71
2023-01-08T00:41:15.915Z,87.17
2023-01-08T00:43:44.050Z,87.28
2023-01-08T00:46:12.323Z,87.78
2023-01-08T00:48:39.714Z,87.68
2023-01-08T00:51:08.991Z,88.13
2023-01-08T00:53:38.339Z,88.67
2023-01-08T00:56:09.664Z,89.01
2023-01-08T00:58:36.851Z,89.66
2023-01-08T01:01:10.522Z,89.64
2023-01-08T01:03:37.778Z,89.66
2023-01-08T01:06:06.409Z,90.24
2023-01-08T01:08:34.732Z,89.96
2023-01-08T01:11:08.139Z,90.10
2023-01-08T01:13:35.387Z,90.58
2023-01-08T01:16:04.277Z,90.67
2023-01-08T01:18:31.684Z,90.38
2023-01-08T01:20:59.435Z,90.61
2023-01-08T01:23:26.717Z,90.62
2023-01-08T01:25:54.662Z,90.96
2023-01-08T01:28:22.498Z,90.92
2023-01-08T01:30:57.580Z,91.12
2023-01-08T01:33:24.941Z,90.89
2023-01-08T01:36:03.160Z,90.98
2023-01-08T01:38:30.894Z,91.04
2023-01-08T01:40:59.688Z,90.75
2023-01-08T01:43:35.845Z,90.95
2023-01-08T01:46:06.939Z,91.15
2023-01-08T01:48:34.136Z,91.10
2023-01-08T01:51:02.736Z,90.76
2023-01-08T01:53:35.512Z,90.72
2023-01-08T02:00:39.883Z,90.93
2023-01-08T02:03:10.008Z,91.11
2023-01-08T02:05:56.292Z,91.40
2023-01-08T02:08:39.213Z,91.16
2023-01-08T02:11:09.210Z,91.20
2023-01-08T02:13:43.201Z,91.53
2023-01-08T02:16:10.343Z,91.53
2023-01-08T02:18:40.422Z,91.62
2023-01-08T02:21:21.818Z,92.22
2023-01-08T02:24:10.581Z,92.44
2023-01-08T02:26:38.499Z,92.34
2023-01-08T02:29:10.645Z,92.07
2023-01-08T02:31:41.277Z,91.91
2023-01-08T02:34:10.136Z,92.21
2023-01-08T02:36:37.367Z,91.96
2023-01-08T02:39:11.064Z,91.71
2023-01-08T02:42:17.258Z,91.59
2023-01-08T02:45:06.092Z,91.69
2023-01-08T02:47:47.255Z,91.47
2023-01-08T02:50:44.136Z,91.92
2023-01-08T02:53:19.448Z,92.18
2023-01-08T02:55:55.622Z,92.05
2023-01-08T02:58:25.132Z,92.16
2023-01-08T03:00:54.621Z,92.23
2023-01-08T03:03:31.255Z,92.07
2023-01-08T03:06:06.247Z,91.70
2023-01-08T03:11:24.864Z,91.71
2023-01-08T03:13:55.075Z,91.68
2023-01-08T03:16:30.142Z,91.95
2023-01-08T03:19:32.151Z,91.79
2023-01-08T03:22:02.651Z,92.37
2023-01-08T03:24:34.327Z,92.27
2023-01-08T03:27:05.961Z,92.59
2023-01-08T03:29:35.307Z,92.46
2023-01-08T03:32:06.535Z,91.91
2023-01-08T03:34:38.594Z,91.94
2023-01-08T03:37:09.839Z,91.91
2023-01-08T03:39:46.003Z,92.08
2023-01-08T03:42:17.507Z,92.05
2023-01-08T03:44:44.982Z,92.12
2023-01-08T03:47:13.812Z,92.22
2023-01-08T03:49:44.024Z,92.22
2023-01-08T03:52:28.495Z,92.19
2023-01-08T03:54:55.812Z,92.30
2023-01-08T03:57:23.656Z,92.41
2023-01-08T03:59:51.072Z,92.60
2023-01-08T04:02:18.962Z,92.52
2023-01-08T04:04:46.376Z,93.19
2023-01-08T04:07:14.372Z,92.41
2023-01-08T04:09:41.616Z,92.14
2023-01-08T04:12:09.585Z,92.30
2023-01-08T04:14:36.889Z,92.01
2023-01-08T04:17:04.918Z,92.37
2023-01-08T04:19:32.269Z,92.02
2023-01-08T04:21:59.672Z,91.63
2023-01-08T04:24:27.260Z,91.62
2023-01-08T04:26:55.185Z,91.29
2023-01-08T04:29:23.332Z,91.60
2023-01-08T04:31:52.131Z,91.14
2023-01-08T04:34:20.177Z,91.21
2023-01-08T04:36:47.980Z,90.74
2023-01-08T04:39:15.337Z,90.76
2023-01-08T04:41:44.098Z,90.55
2023-01-08T04:44:11.484Z,90.75
2023-01-08T04:46:40.564Z,90.89
2023-01-08T04:49:07.935Z,90.53
2023-01-08T04:51:35.874Z,90.93
2023-01-08T04:54:03.092Z,90.76
2023-01-08T04:56:31.988Z,90.68
2023-01-08T04:58:59.722Z,90.46
2023-01-08T05:32:39.802Z,89.81
2023-01-08T07:18:19.377Z,88.23
2023-01-08T09:23:21.454Z,87.08
2023-01-08T09:29:25.727Z,87.16
2023-01-08T09:45:55.076Z,89.11
2023-01-08T10:14:36.340Z,89.30
2023-01-08T10:17:37.322Z,88.95
2023-01-08T10:20:58.971Z,88.76
2023-01-08T10:27:29.865Z,88.09
2023-01-08T10:30:49.550Z,87.67
2023-01-08T10:47:24.027Z,86.77
2023-01-08T10:53:19.411Z,86.38
2023-01-08T11:14:28.743Z,85.75
2023-01-08T11:17:18.267Z,85.40
2023-01-08T11:20:19.166Z,85.67
2023-01-08T11:23:44.024Z,86.23
2023-01-08T11:26:37.930Z,85.90
2023-01-08T11:33:21.535Z,86.37
2023-01-08T11:36:03.221Z,86.71
2023-01-08T11:38:43.478Z,86.56
2023-01-08T11:42:02.041Z,87.03
2023-01-08T11:45:08.986Z,87.46
2023-01-08T11:57:41.834Z,88.01
2023-01-08T12:07:44.112Z,87.99
2023-01-08T12:17:14.650Z,88.05
2023-01-08T12:27:55.297Z,89.13
2023-01-08T12:30:43.579Z,89.11
2023-01-08T12:33:50.052Z,88.49
2023-01-08T12:42:19.606Z,88.72
2023-01-08T12:44:48.103Z,89.07
2023-01-08T12:47:25.647Z,88.81
2023-01-08T12:50:22.175Z,87.95
2023-01-08T12:53:44.124Z,87.66
2023-01-08T13:00:05.328Z,87.25
2023-01-08T13:06:35.419Z,87.34
2023-01-08T13:09:06.830Z,87.25
2023-01-08T13:14:52.954Z,87.12
2023-01-08T13:17:25.485Z,87.10
2023-01-08T13:20:19.909Z,86.90
2023-01-08T13:23:13.535Z,87.09
2023-01-08T13:25:56.035Z,86.74
2023-01-08T13:31:40.230Z,87.18
2023-01-08T13:34:44.834Z,86.85
2023-01-08T13:37:27.793Z,86.98
2023-01-08T13:39:58.708Z,87.03
2023-01-08T13:42:33.689Z,87.06
2023-01-08T13:45:13.750Z,86.49
2023-01-08T13:48:33.179Z,86.86
2023-01-08T13:51:12.209Z,86.71
2023-01-08T13:53:47.658Z,86.96
2023-01-08T13:59:09.635Z,86.89
2023-01-08T14:01:37.926Z,87.03
2023-01-08T14:23:37.540Z,87.63
2023-01-08T14:32:33.123Z,87.63
2023-01-08T14:42:34.095Z,87.72
2023-01-08T14:48:55.192Z,87.58
2023-01-08T14:58:01.927Z,86.83
2023-01-08T15:00:37.157Z,87.11
2023-01-08T15:03:33.843Z,86.75
2023-01-08T15:12:41.777Z,87.15
2023-01-08T15:15:41.921Z,86.79
2023-01-08T15:18:12.181Z,87.04
2023-01-08T15:20:39.995Z,86.60
2023-01-08T15:23:07.156Z,86.74
2023-01-08T15:25:34.676Z,86.84
2023-01-08T15:28:04.411Z,87.52
2023-01-08T15:30:43.948Z,86.93
2023-01-08T15:33:23.586Z,87.35
2023-01-08T15:35:53.716Z,87.04
2023-01-08T15:38:22.160Z,87.21
2023-01-08T15:40:50.437Z,87.49
2023-01-08T15:43:18.685Z,86.94
2023-01-08T15:45:48.436Z,86.74
2023-01-08T15:48:15.998Z,87.00
2023-01-08T15:50:44.702Z,86.99
2023-01-08T15:53:25.404Z,86.58
2023-01-08T15:55:56.360Z,86.71
2023-01-08T15:58:25.300Z,86.47
2023-01-08T16:00:52.862Z,86.86
2023-01-08T16:03:21.241Z,86.91
2023-01-08T16:05:50.540Z,87.29
2023-01-08T16:08:19.379Z,87.00
2023-01-08T16:10:55.752Z,86.91
2023-01-08T16:13:23.254Z,86.58
2023-01-08T16:15:51.772Z,86.11
2023-01-08T16:18:18.918Z,86.62
2023-01-08T16:20:52.961Z,86.46
2023-01-08T16:23:20.706Z,86.56
2023-01-08T16:25:49.785Z,86.37
2023-01-08T16:28:18.670Z,86.60
2023-01-08T16:30:46.319Z,86.33
2023-01-08T16:33:13.931Z,86.59
2023-01-08T16:35:42.320Z,86.25
2023-01-08T16:38:13.426Z,86.76
2023-01-08T16:40:41.198Z,86.70
2023-01-08T16:43:11.584Z,87.20
2023-01-08T16:45:45.490Z,87.16
2023-01-08T16:48:14.029Z,87.25
2023-01-08T16:50:42.798Z,87.27
2023-01-08T16:53:10.562Z,87.14
2023-01-08T16:55:39.899Z,87.31
2023-01-08T16:58:08.205Z,87.28
2023-01-08T17:00:51.945Z,86.92
2023-01-08T17:03:23.690Z,87.36
2023-01-08T17:05:51.569Z,87.37
2023-01-08T17:08:20.275Z,87.27
2023-01-08T17:10:47.860Z,87.25
2023-01-08T17:13:14.866Z,87.59
2023-01-08T17:15:42.211Z,87.70
2023-01-08T17:18:09.415Z,87.29
2023-01-08T17:20:37.702Z,87.74
2023-01-08T17:23:04.755Z,87.63
2023-01-08T17:25:35.342Z,88.59
2023-01-08T17:28:05.308Z,89.02
2023-01-08T17:30:33.208Z,88.73
2023-01-08T17:33:00.578Z,88.83
2023-01-08T17:35:30.267Z,88.60
2023-01-08T17:37:58.119Z,88.75
2023-01-08T17:40:51.967Z,89.18
2023-01-08T17:43:19.187Z,89.17
2023-01-08T17:45:46.705Z,89.00
2023-01-08T17:48:13.904Z,89.42
2023-01-08T17:50:41.294Z,89.47
2023-01-08T17:53:08.428Z,90.05
2023-01-08T17:55:38.786Z,89.86
2023-01-08T17:58:11.827Z,89.77
2023-01-08T18:00:39.640Z,90.13
2023-01-08T18:05:50.385Z,90.53
2023-01-08T18:08:20.911Z,90.74
2023-01-08T18:10:49.999Z,91.10
2023-01-08T18:13:17.124Z,90.74
2023-01-08T18:15:47.532Z,91.37
2023-01-08T18:18:14.863Z,91.32
2023-01-08T18:20:42.411Z,91.84
2023-01-08T18:23:09.444Z,91.69
2023-01-08T18:25:41.358Z,91.89
2023-01-08T18:28:09.801Z,91.69
2023-01-08T18:30:37.670Z,91.89
2023-01-08T18:33:06.137Z,92.02
2023-01-08T18:35:36.650Z,92.12
2023-01-08T18:38:04.163Z,92.21
2023-01-08T18:40:31.671Z,92.67
2023-01-08T18:42:59.525Z,92.75
2023-01-08T18:45:29.662Z,92.64
2023-01-08T18:47:57.086Z,93.12
2023-01-08T18:50:24.892Z,93.30
2023-01-08T18:52:54.387Z,93.50
2023-01-08T18:55:21.990Z,93.93
2023-01-08T18:57:51.558Z,93.73
2023-01-08T19:00:23.546Z,94.42
2023-01-08T19:02:52.782Z,94.35
2023-01-08T19:05:20.477Z,94.43
2023-01-08T19:07:50.459Z,94.36
2023-01-08T19:10:19.525Z,94.82
2023-01-08T19:12:47.082Z,95.04
2023-01-08T19:15:19.188Z,95.12
2023-01-08T19:17:48.364Z,95.09
2023-01-08T19:20:18.430Z,95.62
2023-01-08T19:22:45.283Z,95.75
2023-01-08T19:25:16.449Z,95.58
2023-01-08T19:27:46.504Z,95.83
2023-01-08T19:30:14.633Z,95.82
2023-01-08T19:32:44.799Z,95.84
2023-01-08T19:35:16.667Z,95.89
2023-01-08T19:37:47.440Z,95.77
2023-01-08T19:40:17.823Z,95.69
2023-01-08T19:43:03.865Z,96.04
2023-01-08T19:45:32.399Z,95.65
2023-01-08T19:48:00.875Z,95.79
2023-01-08T19:50:31.236Z,95.79
2023-01-08T19:53:04.264Z,96.38
2023-01-08T19:55:32.019Z,96.14
2023-01-08T19:57:59.949Z,96.25
2023-01-08T20:00:28.455Z,96.49
2023-01-08T20:02:55.672Z,96.44
2023-01-08T20:05:23.800Z,96.65
2023-01-08T20:07:57.231Z,96.56
2023-01-08T20:10:26.845Z,96.70
2023-01-08T20:12:54.438Z,96.83
2023-01-08T20:15:22.010Z,97.22
2023-01-08T20:17:50.294Z,97.07
2023-01-08T20:20:19.759Z,97.36
2023-01-08T20:22:46.865Z,97.19
2023-01-08T20:25:14.432Z,97.74
2023-01-08T20:27:42.473Z,97.35
2023-01-08T20:30:11.807Z,97.12
2023-01-08T20:32:39.249Z,97.71
2023-01-08T20:35:08.020Z,97.68
2023-01-08T20:37:35.145Z,97.65
2023-01-08T20:40:02.739Z,97.67
2023-01-08T20:42:33.910Z,97.78
2023-01-08T20:45:02.137Z,97.80
2023-01-08T20:47:29.788Z,97.97
2023-01-08T20:50:15.737Z,98.01
2023-01-08T20:52:47.113Z,97.99
2023-01-08T20:55:14.624Z,98.12
2023-01-08T20:57:41.695Z,98.22
2023-01-08T21:00:09.777Z,98.17
2023-01-08T21:02:36.796Z,98.50
2023-01-08T21:05:05.707Z,98.94
2023-01-08T21:07:32.727Z,98.94
2023-01-08T21:10:00.117Z,98.91
2023-01-08T21:12:27.338Z,98.95
2023-01-08T21:14:54.868Z,99.17
2023-01-08T21:17:21.948Z,99.08
2023-01-08T21:19:52.363Z,98.94
2023-01-08T21:22:23.130Z,99.24
2023-01-08T21:24:51.299Z,99.12
2023-01-08T21:27:18.403Z,99.25
2023-01-08T21:29:45.792Z,99.27
2023-01-08T21:32:14.631Z,99.00
2023-01-08T21:34:42.587Z,99.17
2023-01-08T21:37:09.750Z,99.04
2023-01-08T21:39:38.098Z,99.18
2023-01-08T21:42:23.849Z,99.45
2023-01-08T21:45:10.051Z,99.38
2023-01-08T21:47:37.363Z,99.55
2023-01-08T21:50:05.279Z,99.44
2023-01-08T21:52:50.926Z,99.51
2023-01-08T21:55:18.313Z,99.63
2023-01-08T21:57:45.753Z,99.83
2023-01-08T22:00:14.784Z,99.72
2023-01-08T22:02:42.142Z,99.70
2023-01-08T22:05:10.129Z,99.88
2023-01-08T22:07:37.340Z,99.91
2023-01-08T22:10:06.452Z,99.59
2023-01-08T22:12:33.505Z,99.81
2023-01-08T22:15:01.032Z,99.91
2023-01-08T22:17:30.646Z,99.79
2023-01-08T22:19:58.128Z,99.98
2023-01-08T22:22:25.687Z,100.00
2023-01-08T22:24:53.612Z,99.75
2023-01-08T22:27:21.591Z,99.86
2023-01-08T22:29:49.247Z,100.00
2023-01-08T22:32:16.514Z,100.00
2023-01-08T22:34:43.818Z,100.00
2023-01-08T22:37:11.197Z,100.00
2023-01-08T22:39:41.392Z,100.00
2023-01-08T22:42:08.635Z,100.00
2023-01-08T22:44:36.258Z,100.00
2023-01-08T22:47:03.643Z,100.00
2023-01-08T22:49:30.965Z,100.00
2023-01-08T22:51:58.943Z,100.00
2023-01-08T22:54:26.270Z,100.00
2023-01-08T22:56:53.265Z,100.00
2023-01-08T22:59:21.432Z,100.00
2023-01-08T23:01:49.281Z,100.00
2023-01-08T23:04:16.707Z,100.00
2023-01-08T23:06:43.755Z,100.00
2023-01-08T23:09:11.088Z,100.00
2023-01-08T23:11:38.108Z,100.00
2023-01-08T23:14:05.548Z,100.00
2023-01-08T23:16:32.852Z,100.00
2023-01-08T23:19:00.715Z,100.00
2023-01-08T23:21:28.670Z,100.00
2023-01-08T23:23:56.330Z,100.00
2023-01-08T23:26:26.625Z,100.00
2023-01-08T23:28:55.305Z,100.00
2023-01-08T23:31:25.282Z,100.00
2023-01-08T23:33:53.483Z,100.00
2023-01-08T23:36:21.628Z,100.00
2023-01-08T23:38:54.524Z,100.00
2023-01-08T23:41:26.025Z,100.00
2023-01-08T23:43:54.718Z,100.00
2023-01-08T23:46:21.837Z,100.00
2023-01-08T23:48:51.074Z,100.00
2023-01-08T23:51:18.088Z,100.00
2023-01-08T23:53:45.488Z,100.00
2023-01-08T23:56:12.866Z,100.00
2023-01-08T23:58:40.189Z,99.97
